Time;durP1;ratioP1;P1;durP2;ratioP2;P2;SDS_P1;SDS_P2;PMS_P1;PMS_P2;Temp;Humidity;BMP_temperature;BMP_pressure;BME280_temperature;BME280_humidity;BME280_pressure;Samples;Min_cycle;Max_cycle;Signal;HPM_P1;HPM_P2
2023/08/05 00:00:50;;;;;;;;;4.00;3.00;;;;;19.46;69.84;101116.59;5033539;28;45269;-73
2023/08/05 00:03:15;;;;;;;;;2.00;2.00;;;;;19.45;69.08;101102.44;5036575;28;45217;-74
2023/08/05 00:05:42;;;;;;;;;3.00;2.00;;;;;19.51;68.54;101098.94;5035821;28;46047;-74
2023/08/05 00:08:08;;;;;;;;;2.33;2.33;;;;;19.52;68.82;101083.91;5035184;28;45611;-73
2023/08/05 00:10:33;;;;;;;;;3.00;2.67;;;;;19.59;69.35;101106.91;5036162;28;45363;-73
2023/08/05 00:12:59;;;;;;;;;3.00;3.00;;;;;19.42;68.88;101107.75;5036446;28;45454;-73
2023/08/05 00:15:25;;;;;;;;;2.00;2.00;;;;;19.37;69.08;101090.06;5035874;28;45444;-73
2023/08/05 00:17:50;;;;;;;;;3.00;2.00;;;;;19.42;69.28;101097.16;5027761;28;45455;-73
2023/08/05 00:20:16;;;;;;;;;4.00;3.33;;;;;19.39;68.83;101093.63;5039892;28;45358;-73
2023/08/05 00:22:42;;;;;;;;;3.00;2.00;;;;;19.30;69.04;101093.56;5039822;28;45475;-73
2023/08/05 00:25:08;;;;;;;;;3.00;2.00;;;;;19.24;68.65;101079.44;5038336;28;48280;-73
2023/08/05 00:27:33;;;;;;;;;3.00;2.33;;;;;19.32;68.40;101082.13;5039637;28;45499;-73
2023/08/05 00:29:59;;;;;;;;;2.00;1.67;;;;;19.32;68.36;101078.56;5039552;28;45663;-73
2023/08/05 00:32:27;;;;;;;;;3.67;3.00;;;;;19.30;68.31;101089.19;5040083;28;45220;-73
2023/08/05 00:34:52;;;;;;;;;4.67;3.67;;;;;19.24;68.86;101079.44;5036942;28;45450;-73
2023/08/05 00:37:18;;;;;;;;;3.00;2.00;;;;;19.20;68.72;101075.03;5037928;28;45487;-73
2023/08/05 00:39:43;;;;;;;;;3.33;3.33;;;;;19.22;68.99;101073.25;5039519;28;45657;-73
2023/08/05 00:42:09;;;;;;;;;2.00;1.00;;;;;19.25;68.76;101078.56;5039920;28;45628;-73
2023/08/05 00:44:35;;;;;;;;;2.67;2.00;;;;;19.31;68.70;101079.47;5039277;28;45537;-74
2023/08/05 00:47:00;;;;;;;;;3.00;2.00;;;;;19.27;68.44;101063.56;5038118;28;46082;-74
2023/08/05 00:49:26;;;;;;;;;2.33;2.00;;;;;19.39;68.00;101081.25;5038050;28;45320;-73
2023/08/05 00:51:53;;;;;;;;;3.67;3.00;;;;;19.40;68.08;101082.16;5039451;28;45525;-73
2023/08/05 00:54:20;;;;;;;;;4.00;3.00;;;;;19.37;68.21;101075.06;5039250;28;45346;-73
2023/08/05 00:56:46;;;;;;;;;3.67;2.33;;;;;19.42;68.39;101083.03;5038883;28;45423;-73
2023/08/05 00:59:12;;;;;;;;;3.00;3.00;;;;;19.32;69.09;101066.22;5039725;28;45451;-73
2023/08/05 01:01:38;;;;;;;;;3.67;3.00;;;;;19.36;68.80;101073.31;5040179;28;45435;-74
2023/08/05 01:04:04;;;;;;;;;2.00;2.00;;;;;19.39;68.88;101062.69;5039511;28;45434;-74
2023/08/05 01:06:32;;;;;;;;;1.33;1.33;;;;;19.48;68.47;101061.84;5038216;28;45328;-74
2023/08/05 01:08:59;;;;;;;;;3.00;3.00;;;;;19.45;68.33;101035.34;5040051;28;45391;-73
2023/08/05 01:11:25;;;;;;;;;3.00;2.00;;;;;19.52;67.97;101036.22;5039599;28;45277;-74
2023/08/05 01:13:50;;;;;;;;;3.33;3.00;;;;;19.54;67.35;101040.66;5039390;28;45427;-74
2023/08/05 01:16:16;;;;;;;;;3.00;3.00;;;;;19.51;67.24;101038.00;5038209;28;45358;-74
2023/08/05 01:18:42;;;;;;;;;2.00;2.00;;;;;19.52;67.60;101042.41;5039563;28;45485;-74
2023/08/05 01:21:19;;;;;;;;;4.00;2.67;;;;;19.52;67.34;101045.06;5039897;28;45304;-73
2023/08/05 01:24:10;;;;;;;;;1.33;1.33;;;;;19.48;67.21;101030.06;5038225;28;45261;-74
2023/08/05 01:26:37;;;;;;;;;4.00;3.33;;;;;19.48;67.65;101038.00;5037967;28;45311;-74
2023/08/05 01:29:05;;;;;;;;;1.00;1.00;;;;;19.53;67.31;101032.69;5036642;28;45329;-74
2023/08/05 01:31:32;;;;;;;;;2.67;2.67;;;;;19.54;67.09;101040.66;5038323;28;45295;-73
2023/08/05 01:33:58;;;;;;;;;2.67;2.67;;;;;19.51;67.81;101035.34;5038099;28;45558;-74
2023/08/05 01:36:24;;;;;;;;;4.00;2.00;;;;;19.44;68.16;101037.09;5038027;28;45418;-74
2023/08/05 01:38:50;;;;;;;;;3.00;2.00;;;;;19.48;67.59;101035.34;5038201;28;45512;-74
2023/08/05 01:41:16;;;;;;;;;5.00;2.00;;;;;19.49;68.00;101026.50;5038364;28;45327;-74
2023/08/05 01:43:42;;;;;;;;;2.67;2.33;;;;;19.42;68.17;101030.94;5038117;28;45449;-74
2023/08/05 01:46:07;;;;;;;;;2.00;1.00;;;;;19.30;67.92;101014.09;5037605;28;45476;-74
2023/08/05 01:48:33;;;;;;;;;3.33;2.33;;;;;19.10;68.53;101007.03;5036711;28;45510;-74
2023/08/05 01:50:59;;;;;;;;;3.00;2.00;;;;;19.08;68.36;101022.03;5038189;28;45346;-74
2023/08/05 01:53:24;;;;;;;;;2.00;2.00;;;;;19.15;68.28;101026.44;5037899;28;46269;-74
2023/08/05 01:55:50;;;;;;;;;3.00;3.00;;;;;18.98;68.04;101001.69;5037717;28;45554;-73
2023/08/05 01:58:15;;;;;;;;;2.33;2.00;;;;;19.07;68.09;101022.91;5036467;28;45400;-73
2023/08/05 02:00:50;;;;;;;;;3.00;3.00;;;;;18.98;68.80;101015.81;5038189;28;45465;-74
2023/08/05 02:03:15;;;;;;;;;3.67;3.67;;;;;18.94;69.60;101026.38;5037626;28;46059;-73
2023/08/05 02:05:41;;;;;;;;;2.00;2.00;;;;;18.90;69.64;101021.97;5037684;28;45411;-74
2023/08/05 02:08:06;;;;;;;;;3.00;3.00;;;;;18.91;68.67;101023.75;5036378;28;45401;-74
2023/08/05 02:10:32;;;;;;;;;3.33;3.00;;;;;18.82;69.46;101011.34;5036550;28;45264;-74
2023/08/05 02:12:57;;;;;;;;;3.00;3.00;;;;;18.86;69.38;101011.38;5037416;28;45880;-73
2023/08/05 02:15:23;;;;;;;;;2.67;2.67;;;;;18.90;68.73;101011.38;5036016;28;45490;-74
2023/08/05 02:17:49;;;;;;;;;3.00;2.00;;;;;18.86;69.66;101003.44;5037497;28;45461;-74
2023/08/05 02:20:16;;;;;;;;;3.33;3.00;;;;;18.87;69.13;101005.19;5037835;28;45267;-74
2023/08/05 02:22:41;;;;;;;;;3.00;2.00;;;;;18.90;69.11;101003.44;4985487;28;1450292;-74
2023/08/05 02:25:07;;;;;;;;;5.00;3.33;;;;;18.85;69.49;100996.34;5038384;28;45486;-73
2023/08/05 02:27:33;;;;;;;;;4.33;2.67;;;;;18.85;68.78;100979.59;5038498;28;45362;-73
2023/08/05 02:29:58;;;;;;;;;2.67;2.00;;;;;18.82;68.88;100980.47;5038549;28;45453;-73
2023/08/05 02:32:24;;;;;;;;;4.67;4.00;;;;;18.79;68.96;100972.53;5038269;28;45552;-73
2023/08/05 02:34:49;;;;;;;;;3.00;2.00;;;;;18.70;69.59;100969.78;5038339;28;45608;-73
2023/08/05 02:37:15;;;;;;;;;4.67;3.33;;;;;18.74;69.26;100965.41;5038837;28;45446;-73
2023/08/05 02:39:40;;;;;;;;;2.00;1.00;;;;;18.69;69.02;100953.03;5038224;28;45451;-73
2023/08/05 02:42:07;;;;;;;;;3.00;2.00;;;;;18.78;68.77;100946.91;5037592;28;45451;-74
2023/08/05 02:44:32;;;;;;;;;2.00;2.00;;;;;18.81;68.49;100952.22;5038165;28;45496;-74
2023/08/05 02:46:58;;;;;;;;;3.00;3.00;;;;;18.66;69.05;100923.03;5038207;28;45490;-74
2023/08/05 02:49:23;;;;;;;;;3.00;3.00;;;;;18.80;69.03;100939.91;5038541;28;45496;-74
2023/08/05 02:51:49;;;;;;;;;2.00;2.00;;;;;18.78;68.93;100946.91;5038103;28;45489;-74
2023/08/05 02:54:16;;;;;;;;;2.67;2.67;;;;;18.76;69.40;100948.69;5036742;28;45683;-74
2023/08/05 02:56:42;;;;;;;;;4.00;3.33;;;;;18.56;69.91;100931.81;5038142;28;45227;-73
2023/08/05 02:59:07;;;;;;;;;4.33;2.67;;;;;18.52;70.17;100930.94;5038227;28;45252;-74
2023/08/05 03:01:37;;;;;;;;;2.00;2.00;;;;;18.55;70.27;100949.47;5036611;28;47809;-73
2023/08/05 03:04:03;;;;;;;;;3.00;2.00;;;;;18.63;69.27;100944.22;5037969;28;45312;-74
2023/08/05 03:06:28;;;;;;;;;3.00;3.00;;;;;18.60;69.54;100939.81;5037755;28;45541;-73
2023/08/05 03:08:54;;;;;;;;;3.00;3.00;;;;;18.75;69.41;100960.13;5038099;28;45233;-73
2023/08/05 03:11:21;;;;;;;;;2.67;2.00;;;;;18.72;69.40;100928.38;5037450;28;45492;-73
2023/08/05 03:13:47;;;;;;;;;3.00;3.00;;;;;18.74;69.59;100945.13;5038076;28;45379;-73
2023/08/05 03:16:13;;;;;;;;;2.00;2.00;;;;;18.62;69.50;100956.56;5037698;28;45253;-73
2023/08/05 03:18:39;;;;;;;;;4.00;3.00;;;;;18.54;69.81;100939.75;5037942;28;45564;-74
2023/08/05 03:21:05;;;;;;;;;4.00;2.00;;;;;18.55;69.62;100938.00;5037309;28;45294;-73
2023/08/05 03:23:30;;;;;;;;;3.00;3.00;;;;;18.62;69.33;100948.63;5036294;28;45463;-74
2023/08/05 03:25:56;;;;;;;;;1.67;1.67;;;;;18.53;69.53;100931.84;5037591;28;45445;-74
2023/08/05 03:28:22;;;;;;;;;3.67;3.00;;;;;18.45;69.24;100942.38;5037797;28;45512;-73
2023/08/05 03:30:47;;;;;;;;;3.00;2.33;;;;;18.48;69.53;100953.88;5037703;28;45486;-74
2023/08/05 03:33:13;;;;;;;;;5.00;4.00;;;;;18.42;69.58;100951.19;5037408;28;45505;-73
2023/08/05 03:35:43;;;;;;;;;3.33;3.00;;;;;18.22;70.72;100948.47;5037461;28;45312;-73
2023/08/05 03:38:08;;;;;;;;;4.00;3.67;;;;;18.21;70.95;100954.63;5036280;28;45478;-73
2023/08/05 03:40:34;;;;;;;;;3.67;3.00;;;;;18.30;70.51;100953.78;5036939;28;45594;-73
2023/08/05 03:43:00;;;;;;;;;3.00;2.00;;;;;18.34;70.04;100929.09;5037054;28;45563;-73
2023/08/05 03:45:26;;;;;;;;;3.00;3.00;;;;;18.42;70.23;100935.34;5036078;28;45370;-73
2023/08/05 03:47:53;;;;;;;;;2.00;2.00;;;;;18.53;70.24;100945.06;5037480;28;45565;-73
2023/08/05 03:50:20;;;;;;;;;4.33;2.33;;;;;18.57;69.77;100933.63;5037492;28;46200;-73
2023/08/05 03:52:46;;;;;;;;;3.00;2.00;;;;;18.55;69.65;100924.78;5037271;28;45427;-73
2023/08/05 03:55:12;;;;;;;;;1.00;1.00;;;;;18.63;69.43;100931.84;5036933;28;45529;-74
2023/08/05 03:57:37;;;;;;;;;4.00;2.67;;;;;18.63;69.50;100923.03;5037051;28;45541;-74
2023/08/05 04:00:04;;;;;;;;;2.00;2.00;;;;;18.66;69.33;100921.28;5036911;28;45985;-73
2023/08/05 04:02:29;;;;;;;;;3.00;3.00;;;;;18.60;69.87;100907.16;5037143;28;45429;-74
2023/08/05 04:04:55;;;;;;;;;3.00;3.00;;;;;18.53;69.92;100910.66;5035693;28;45377;-74
2023/08/05 04:07:22;;;;;;;;;4.33;4.00;;;;;18.30;70.35;100885.00;5037484;28;45486;-74
2023/08/05 04:09:49;;;;;;;;;3.00;3.00;;;;;18.52;69.83;100907.13;5037216;28;46657;-74
2023/08/05 04:12:15;;;;;;;;;3.00;2.00;;;;;18.46;69.72;100910.66;5035518;28;45617;-74
2023/08/05 04:14:43;;;;;;;;;3.00;2.33;;;;;18.40;70.08;100905.34;5037004;28;45390;-73
2023/08/05 04:17:10;;;;;;;;;2.00;2.00;;;;;18.43;70.10;100908.00;5037313;28;45493;-73
2023/08/05 04:19:37;;;;;;;;;3.33;3.00;;;;;18.48;70.11;100914.19;5036721;28;45501;-74
2023/08/05 04:22:03;;;;;;;;;3.00;3.00;;;;;18.42;70.18;100889.47;5036647;28;45734;-74
2023/08/05 04:24:29;;;;;;;;;4.00;3.00;;;;;18.53;69.97;100900.09;5036712;28;45496;-73
2023/08/05 04:26:56;;;;;;;;;2.67;2.00;;;;;18.43;70.03;100881.53;5036760;28;45460;-74
2023/08/05 04:29:22;;;;;;;;;3.00;3.00;;;;;18.52;69.93;100899.19;5035428;28;46527;-73
2023/08/05 04:31:48;;;;;;;;;2.00;2.00;;;;;18.56;69.50;100893.06;5036591;28;45526;-74
2023/08/05 04:34:14;;;;;;;;;3.67;2.67;;;;;18.58;69.55;100891.28;5035451;28;45482;-73
2023/08/05 04:36:40;;;;;;;;;4.00;3.67;;;;;18.52;69.49;100878.00;5036783;28;45558;-73
2023/08/05 04:39:06;;;;;;;;;4.33;4.00;;;;;18.58;69.38;100898.31;5036068;28;45470;-74
2023/08/05 04:41:32;;;;;;;;;3.00;3.00;;;;;18.47;69.40;100893.88;5051831;28;45435;-73
2023/08/05 04:43:58;;;;;;;;;3.00;3.00;;;;;18.37;70.06;100905.31;5036522;28;45411;-73
2023/08/05 04:46:24;;;;;;;;;4.00;3.00;;;;;18.30;69.96;100900.88;5036931;28;45502;-73
2023/08/05 04:48:49;;;;;;;;;2.00;2.00;;;;;18.24;70.37;100899.13;5036560;28;45804;-73
2023/08/05 04:51:15;;;;;;;;;4.67;3.00;;;;;18.22;70.39;100885.00;5034726;28;45416;-73
2023/08/05 04:53:40;;;;;;;;;3.33;3.00;;;;;18.24;71.33;100896.47;5035954;28;45404;-73
2023/08/05 04:56:06;;;;;;;;;3.00;2.00;;;;;18.18;71.35;100900.81;5036359;28;45304;-73
2023/08/05 04:58:35;;;;;;;;;3.00;3.00;;;;;18.09;71.46;100894.63;5036212;28;45557;-73
2023/08/05 05:01:00;;;;;;;;;2.33;2.33;;;;;18.10;70.90;100895.50;5036307;28;45331;-74
2023/08/05 05:03:26;;;;;;;;;3.00;2.33;;;;;18.14;71.04;100904.34;5036782;28;45401;-74
2023/08/05 05:05:51;;;;;;;;;3.67;1.67;;;;;17.93;71.44;100891.91;5038829;28;45451;-73
2023/08/05 05:08:17;;;;;;;;;4.00;3.00;;;;;17.79;71.89;100902.38;5039518;28;45975;-73
2023/08/05 05:10:46;;;;;;;;;3.67;2.00;;;;;17.79;71.78;100899.72;5039605;28;45605;-74
2023/08/05 05:13:12;;;;;;;;;3.00;3.00;;;;;17.79;71.57;100892.69;5038747;28;45395;-74
2023/08/05 05:15:37;;;;;;;;;3.00;2.33;;;;;17.90;71.63;100900.69;5036255;28;45429;-74
2023/08/05 05:18:03;;;;;;;;;12.50;10.75;;;;;17.79;71.84;100876.81;5037241;28;46230;-73
2023/08/05 05:20:29;;;;;;;;;3.00;3.00;;;;;17.85;71.18;100878.66;5038713;28;45414;-73
2023/08/05 05:22:55;;;;;;;;;3.00;3.00;;;;;18.02;70.94;100899.88;5037628;28;45494;-74
2023/08/05 05:25:22;;;;;;;;;6.00;4.00;;;;;18.02;70.94;100898.09;5038686;28;45374;-73
2023/08/05 05:27:48;;;;;;;;;3.33;2.33;;;;;18.01;71.23;100884.91;5037218;28;46499;-73
2023/08/05 05:30:14;;;;;;;;;3.33;3.33;;;;;18.13;71.11;100886.72;5037054;28;45579;-73
2023/08/05 05:32:39;;;;;;;;;4.00;2.67;;;;;18.15;70.90;100890.25;5038658;28;45466;-73
2023/08/05 05:35:05;;;;;;;;;2.00;2.00;;;;;18.23;70.59;100891.16;5038640;28;45340;-73
2023/08/05 05:37:31;;;;;;;;;2.00;2.00;;;;;18.28;70.08;100892.97;5038310;28;45347;-73
2023/08/05 05:39:56;;;;;;;;;2.67;2.00;;;;;18.35;70.30;100893.84;5038859;28;45437;-73
2023/08/05 05:42:22;;;;;;;;;4.00;4.00;;;;;18.39;69.90;100886.81;5038678;28;45405;-73
2023/08/05 05:44:52;;;;;;;;;2.00;1.00;;;;;18.47;69.86;100888.59;5037270;28;45589;-73
2023/08/05 05:47:19;;;;;;;;;2.00;2.00;;;;;18.52;69.62;100885.06;5038204;28;45383;-73
2023/08/05 05:49:46;;;;;;;;;6.00;4.67;;;;;18.52;69.02;100882.44;5038088;28;45576;-73
2023/08/05 05:52:15;;;;;;;;;3.33;3.00;;;;;18.58;68.80;100907.16;5038130;28;45474;-72
2023/08/05 05:54:41;;;;;;;;;4.00;3.00;;;;;18.61;68.64;100895.69;5039014;28;45371;-73
2023/08/05 05:57:07;;;;;;;;;2.33;2.00;;;;;18.69;68.64;100900.13;5038518;28;45478;-73
2023/08/05 05:59:32;;;;;;;;;4.00;3.67;;;;;18.76;68.99;100911.63;5038688;28;45502;-72
2023/08/05 06:01:58;;;;;;;;;3.00;3.00;;;;;18.85;68.66;100910.78;5039235;28;45328;-74
2023/08/05 06:04:27;;;;;;;;;3.67;3.00;;;;;18.93;67.86;100906.38;5040120;28;45426;-74
2023/08/05 06:06:54;;;;;;;;;2.33;2.33;;;;;19.19;67.71;100911.69;5038821;28;45411;-73
2023/08/05 06:09:20;;;;;;;;;5.00;4.00;;;;;19.34;67.32;100897.56;5038762;28;45414;-73
2023/08/05 06:11:46;;;;;;;;;5.00;4.00;;;;;19.58;67.12;100909.03;5038602;28;45561;-74
2023/08/05 06:14:12;;;;;;;;;3.33;3.33;;;;;19.67;66.06;100907.22;5038742;28;45465;-74
2023/08/05 06:16:37;;;;;;;;;3.00;3.00;;;;;19.66;66.76;100899.31;5037254;28;45430;-73
2023/08/05 06:19:03;;;;;;;;;8.67;8.67;;;;;19.83;66.21;100909.91;5037205;28;45380;-74
2023/08/05 06:21:28;;;;;;;;;7.67;7.33;;;;;19.89;66.32;100911.66;5038521;28;45363;-74
2023/08/05 06:23:54;;;;;;;;;6.00;5.67;;;;;21.10;64.56;100911.06;5037408;28;45312;-74
2023/08/05 06:26:19;;;;;;;;;3.00;3.00;;;;;23.97;58.02;100909.09;5038264;28;46031;-74
2023/08/05 06:28:45;;;;;;;;;2.00;2.00;;;;;25.67;53.38;100895.41;5038208;28;45205;-74
2023/08/05 06:31:11;;;;;;;;;3.00;3.00;;;;;27.52;50.46;100877.25;5036878;28;45480;-74
2023/08/05 06:33:36;;;;;;;;;3.00;2.67;;;;;29.02;46.99;100885.03;5038012;28;45693;-74
2023/08/05 06:36:02;;;;;;;;;3.67;3.67;;;;;30.38;43.15;100870.09;5037219;28;45453;-75
2023/08/05 06:38:27;;;;;;;;;2.00;2.00;;;;;31.61;41.85;100887.41;5037110;28;45272;-75
2023/08/05 06:40:53;;;;;;;;;3.00;2.00;;;;;32.54;39.38;100873.34;5037106;28;45325;-76
2023/08/05 06:43:18;;;;;;;;;1.00;1.00;;;;;33.21;37.12;100879.41;5038119;28;45427;-76
2023/08/05 06:45:46;;;;;;;;;1.33;1.33;;;;;33.59;37.71;100884.34;5037721;28;45407;-74
2023/08/05 06:48:11;;;;;;;;;2.00;1.33;;;;;33.88;35.27;100893.44;5038112;28;45310;-75
2023/08/05 06:50:37;;;;;;;;;4.00;3.00;;;;;33.96;33.55;100881.22;5038036;28;45534;-75
2023/08/05 06:53:02;;;;;;;;;4.00;4.00;;;;;34.55;33.97;100879.25;5037855;28;45513;-75
2023/08/05 06:55:28;;;;;;;;;0.00;0.00;;;;;35.01;34.20;100867.22;5038220;28;45323;-76
2023/08/05 06:57:53;;;;;;;;;1.67;1.67;;;;;35.12;33.14;100867.34;5037934;28;45513;-75
2023/08/05 07:00:19;;;;;;;;;0.67;0.67;;;;;35.46;34.38;100856.91;5037720;28;45311;-75
2023/08/05 07:02:45;;;;;;;;;1.33;1.33;;;;;35.64;33.00;100852.91;5037866;28;45594;-75
2023/08/05 07:05:10;;;;;;;;;3.00;2.67;;;;;36.39;30.99;100845.78;5037350;28;45346;-75
2023/08/05 07:07:36;;;;;;;;;2.67;1.67;;;;;37.14;28.67;100861.06;5036229;28;45454;-75
2023/08/05 07:10:03;;;;;;;;;4.00;4.00;;;;;37.82;28.69;100867.56;5053714;28;45504;-76
2023/08/05 07:12:29;;;;;;;;;3.00;2.00;;;;;38.17;28.21;100872.94;5038130;28;45341;-75
2023/08/05 07:14:55;;;;;;;;;2.00;2.00;;;;;38.60;27.08;100868.56;5037516;28;45875;-75
2023/08/05 07:17:20;;;;;;;;;2.33;2.33;;;;;39.62;26.40;100882.69;5037604;28;45267;-76
2023/08/05 07:19:46;;;;;;;;;2.67;2.00;;;;;39.43;25.45;100879.81;5036175;28;45572;-75
2023/08/05 07:22:12;;;;;;;;;2.33;2.00;;;;;39.27;26.41;100883.84;5036143;28;45272;-76
2023/08/05 07:24:37;;;;;;;;;2.00;2.00;;;;;38.35;27.33;100886.94;5036057;28;47817;-76
2023/08/05 07:27:04;;;;;;;;;0.33;0.33;;;;;39.18;26.35;100882.78;5035880;28;45517;-75
2023/08/05 07:29:29;;;;;;;;;1.33;1.33;;;;;37.22;27.80;100848.59;5035141;28;45474;-75
2023/08/05 07:31:55;;;;;;;;;1.00;1.00;;;;;37.58;27.71;100883.97;5036615;28;45655;-76
2023/08/05 07:34:22;;;;;;;;;1.00;1.00;;;;;37.51;28.30;100883.59;5036450;28;45541;-75
2023/08/05 07:36:48;;;;;;;;;0.00;0.00;;;;;38.07;27.29;100887.47;5036372;28;45359;-75
2023/08/05 07:39:13;;;;;;;;;3.00;3.00;;;;;36.94;27.80;100887.94;5035022;28;45404;-75
2023/08/05 07:41:39;;;;;;;;;0.00;0.00;;;;;35.67;29.97;100889.88;5035554;28;45614;-75
2023/08/05 07:44:07;;;;;;;;;1.00;1.00;;;;;36.88;28.78;100890.25;5032263;28;45496;-74
2023/08/05 07:46:40;;;;;;;;;1.00;1.00;;;;;37.33;28.39;100875.00;5029180;28;45548;-73
2023/08/05 07:49:08;;;;;;;;;1.67;1.67;;;;;37.28;28.14;100873.63;5030615;28;46331;-74
2023/08/05 07:51:39;;;;;;;;;5.00;5.00;;;;;38.09;27.26;100882.75;5034229;28;45662;-75
2023/08/05 07:54:05;;;;;;;;;13.67;12.33;;;;;37.73;27.24;100882.81;5032936;28;46256;-75
2023/08/05 07:56:32;;;;;;;;;11.67;9.67;;;;;38.82;26.42;100867.63;5036141;28;45458;-75
2023/08/05 07:58:58;;;;;;;;;14.33;12.00;;;;;39.95;24.63;100867.94;5036556;28;45505;-75
2023/08/05 08:01:23;;;;;;;;;14.00;12.33;;;;;40.71;24.81;100875.66;5035964;28;45495;-76
2023/08/05 08:04:01;;;;;;;;;10.00;10.00;;;;;41.11;23.07;100862.88;5033186;28;45526;-75
2023/08/05 08:06:27;;;;;;;;;5.67;3.33;;;;;41.72;23.14;100870.78;5035342;28;45489;-75
2023/08/05 08:08:52;;;;;;;;;6.00;6.00;;;;;42.03;21.95;100858.69;5034336;28;45380;-74
2023/08/05 08:11:18;;;;;;;;;4.00;4.00;;;;;41.06;22.64;100868.78;5035359;28;45546;-75
2023/08/05 08:13:44;;;;;;;;;3.00;2.00;;;;;41.08;22.40;100855.78;5033412;28;46021;-75
2023/08/05 08:16:09;;;;;;;;;1.33;1.33;;;;;40.03;23.42;100852.69;5034275;28;45468;-74
2023/08/05 08:18:36;;;;;;;;;3.00;2.00;;;;;39.92;23.78;100853.66;5034755;28;45563;-75
2023/08/05 08:21:01;;;;;;;;;2.33;2.00;;;;;40.80;23.09;100852.06;5034073;28;45517;-75
2023/08/05 08:23:27;;;;;;;;;1.67;1.67;;;;;41.63;24.61;100854.34;5033611;28;45900;-75
2023/08/05 08:25:56;;;;;;;;;2.00;1.00;;;;;41.77;21.93;100856.59;5032375;28;45383;-74
2023/08/05 08:28:21;;;;;;;;;1.33;1.33;;;;;41.81;21.97;100858.03;5035555;28;45454;-75
2023/08/05 08:30:55;;;;;;;;;1.00;1.00;;;;;42.12;22.68;100857.75;5035743;28;45485;-75
2023/08/05 08:33:21;;;;;;;;;3.00;2.33;;;;;42.04;22.68;100861.28;5033244;28;45474;-74
2023/08/05 08:35:49;;;;;;;;;1.00;1.00;;;;;40.66;24.12;100863.41;5031743;28;45479;-74
2023/08/05 08:38:15;;;;;;;;;1.00;1.00;;;;;39.73;25.59;100859.84;5036535;28;45504;-74
2023/08/05 08:40:52;;;;;;;;;1.00;1.00;;;;;40.95;24.86;100839.66;5037299;28;45522;-75
2023/08/05 08:43:19;;;;;;;;;0.33;0.33;;;;;39.96;24.25;100825.88;5034340;28;47213;-74
2023/08/05 08:45:50;;;;;;;;;2.33;1.67;;;;;40.73;24.60;100859.09;5036523;28;45328;-74
2023/08/05 08:48:16;;;;;;;;;1.33;1.00;;;;;40.91;24.16;100862.88;5036749;28;45525;-74
2023/08/05 08:50:44;;;;;;;;;1.33;1.00;;;;;41.68;21.94;100861.06;5038713;28;45394;-74
2023/08/05 08:53:13;;;;;;;;;5.33;5.33;;;;;41.77;22.52;100862.06;5038218;28;46621;-75
2023/08/05 08:55:41;;;;;;;;;3.00;3.00;;;;;42.15;21.81;100864.84;5038062;28;45596;-74
2023/08/05 08:58:06;;;;;;;;;2.33;2.00;;;;;42.26;21.58;100856.38;5038251;28;45365;-74
2023/08/05 09:00:33;;;;;;;;;3.00;2.00;;;;;42.56;21.37;100837.88;5038495;28;45477;-74
2023/08/05 09:03:01;;;;;;;;;3.67;3.67;;;;;42.60;21.61;100809.97;5038022;28;45498;-75
2023/08/05 09:05:44;;;;;;;;;1.67;1.00;;;;;43.21;22.42;100834.88;5038025;28;45282;-75
2023/08/05 09:08:10;;;;;;;;;2.00;2.00;;;;;42.87;20.96;100844.75;5038192;28;45393;-76
2023/08/05 09:10:39;;;;;;;;;1.67;1.67;;;;;42.63;20.90;100833.50;5038888;28;45404;-75
2023/08/05 09:13:06;;;;;;;;;2.00;1.00;;;;;43.49;20.01;100843.88;5037943;28;46158;-74
2023/08/05 09:15:33;;;;;;;;;2.00;2.00;;;;;43.66;21.35;100844.84;5035508;28;45437;-75
2023/08/05 09:18:00;;;;;;;;;3.33;3.00;;;;;43.80;20.48;100837.91;5038631;28;45239;-76
2023/08/05 09:20:27;;;;;;;;;3.00;2.67;;;;;43.98;20.09;100848.84;5038379;28;45544;-76
2023/08/05 09:22:54;;;;;;;;;1.67;1.67;;;;;44.12;20.02;100851.00;5037824;28;45474;-76
2023/08/05 09:25:21;;;;;;;;;2.00;1.33;;;;;44.45;19.88;100827.16;5038122;28;45452;-76
2023/08/05 09:27:47;;;;;;;;;3.00;2.33;;;;;44.58;19.96;100843.22;5037922;28;45419;-79
2023/08/05 09:30:17;;;;;;;;;3.00;3.00;;;;;43.63;19.15;100846.03;5039192;28;45506;-75
2023/08/05 09:32:46;;;;;;;;;3.00;3.00;;;;;42.29;21.31;100834.13;5038444;28;46079;-74
2023/08/05 09:35:13;;;;;;;;;3.33;3.00;;;;;41.58;21.40;100835.53;5037898;28;45421;-75
2023/08/05 09:37:40;;;;;;;;;3.67;3.00;;;;;39.86;22.55;100843.22;5037968;28;45528;-74
2023/08/05 09:40:19;;;;;;;;;5.00;5.00;;;;;40.40;23.19;100844.75;5038270;28;45537;-75
2023/08/05 09:42:50;;;;;;;;;1.33;1.00;;;;;41.15;22.50;100840.50;5036073;28;46076;-75
2023/08/05 09:45:17;;;;;;;;;3.00;3.00;;;;;41.81;21.96;100840.69;5034924;28;45275;-75
2023/08/05 09:47:46;;;;;;;;;2.00;2.00;;;;;42.07;21.92;100841.75;5037735;28;45280;-74
2023/08/05 09:50:15;;;;;;;;;3.67;3.67;;;;;42.77;20.68;100837.59;5037523;28;45536;-74
2023/08/05 09:52:41;;;;;;;;;1.33;1.00;;;;;42.18;21.16;100843.41;5037706;28;45277;-74
2023/08/05 09:55:13;;;;;;;;;5.33;4.33;;;;;41.24;21.37;100837.94;5038118;28;45208;-75
2023/08/05 09:57:40;;;;;;;;;10.00;9.67;;;;;40.97;22.63;100842.25;5035749;28;45462;-75
2023/08/05 10:00:14;;;;;;;;;6.00;6.00;;;;;40.36;23.44;100833.22;5037705;28;45522;-74
2023/08/05 10:02:44;;;;;;;;;5.00;3.00;;;;;40.46;23.41;100826.91;5035198;28;45432;-75
2023/08/05 10:05:10;;;;;;;;;63.50;50.75;;;;;40.20;23.63;100841.06;5036472;28;45597;-75
2023/08/05 10:07:40;;;;;;;;;3.00;2.67;;;;;39.42;23.11;100832.50;5038405;28;45311;-75
2023/08/05 10:10:08;;;;;;;;;2.33;2.00;;;;;38.72;24.53;100818.41;5038531;28;45334;-75
2023/08/05 10:12:44;;;;;;;;;2.33;2.00;;;;;38.73;24.47;100827.44;5036445;28;46503;-75
2023/08/05 10:15:18;;;;;;;;;2.00;1.33;;;;;38.99;24.31;100820.66;5037723;28;45485;-76
2023/08/05 10:17:45;;;;;;;;;3.67;3.00;;;;;38.66;23.33;100812.56;5037759;28;45423;-76
2023/08/05 10:20:14;;;;;;;;;3.00;2.67;;;;;37.80;24.61;100815.91;5038504;28;45229;-75
2023/08/05 10:22:39;;;;;;;;;3.67;3.67;;;;;37.99;24.00;100820.72;5037679;28;45471;-76
2023/08/05 10:25:06;;;;;;;;;3.67;3.00;;;;;38.41;23.69;100811.88;5037722;28;45606;-75
2023/08/05 10:27:44;;;;;;;;;3.33;3.33;;;;;38.05;23.79;100813.03;5037785;28;45314;-75
2023/08/05 10:30:15;;;;;;;;;2.00;2.00;;;;;38.50;25.00;100796.56;5038093;28;45509;-75
2023/08/05 10:32:55;;;;;;;;;1.33;1.33;;;;;38.11;24.84;100785.28;5035925;28;46254;-75
2023/08/05 10:35:27;;;;;;;;;5.00;4.67;;;;;37.87;24.69;100813.53;5037142;28;45277;-74
2023/08/05 10:38:15;;;;;;;;;4.00;4.00;;;;;36.49;26.30;100816.03;5036017;28;45490;-75
2023/08/05 10:40:46;;;;;;;;;4.00;4.00;;;;;35.94;27.01;100810.06;5036536;28;45565;-75
2023/08/05 10:43:32;;;;;;;;;5.00;4.00;;;;;35.13;27.68;100808.50;5037056;28;46232;-75
2023/08/05 10:45:59;;;;;;;;;3.00;2.33;;;;;35.20;28.28;100797.13;5029775;28;45605;-75
2023/08/05 10:48:45;;;;;;;;;2.00;2.00;;;;;35.86;27.92;100796.19;5037644;28;45351;-75
2023/08/05 10:51:16;;;;;;;;;5.33;4.00;;;;;36.24;26.60;100791.53;5037455;28;45391;-74
2023/08/05 10:53:59;;;;;;;;;4.00;3.00;;;;;36.47;26.00;100785.34;5037126;28;45674;-75
2023/08/05 10:56:35;;;;;;;;;4.00;3.00;;;;;36.58;26.66;100789.00;5036766;28;45505;-75
2023/08/05 10:59:02;;;;;;;;;2.00;2.00;;;;;36.78;25.92;100770.31;5035845;28;45498;-74
2023/08/05 11:01:53;;;;;;;;;2.67;2.00;;;;;36.99;24.82;100785.00;5036677;28;45323;-74
2023/08/05 11:04:32;;;;;;;;;2.00;2.00;;;;;36.92;25.44;100775.56;5037424;28;45626;-74
2023/08/05 11:07:00;;;;;;;;;2.00;2.00;;;;;36.57;25.62;100762.78;5036887;28;45517;-75
2023/08/05 11:09:33;;;;;;;;;2.67;2.67;;;;;36.88;25.85;100768.59;5037198;28;45393;-75
2023/08/05 11:11:59;;;;;;;;;4.00;2.00;;;;;36.71;25.35;100767.19;5037659;28;45280;-74
2023/08/05 11:14:27;;;;;;;;;3.00;2.00;;;;;36.50;26.32;100761.50;5035719;28;46340;-75
2023/08/05 11:17:02;;;;;;;;;2.00;2.00;;;;;35.98;27.67;100747.19;5035421;28;45948;-74
2023/08/05 11:19:27;;;;;;;;;3.00;2.00;;;;;36.20;27.34;100757.38;5037409;28;45265;-74
2023/08/05 11:21:53;;;;;;;;;2.67;2.00;;;;;36.03;26.64;100727.81;5037251;28;45395;-74
2023/08/05 11:24:20;;;;;;;;;2.67;2.67;;;;;35.58;27.18;100735.63;5035780;28;48284;-74